Time;durP1;ratioP1;P1;durP2;ratioP2;P2;SDS_P1;SDS_P2;PMS_P1;PMS_P2;Temp;Humidity;BMP_temperature;BMP_pressure;BME280_temperature;BME280_humidity;BME280_pressure;Samples;Min_cycle;Max_cycle;Signal;HPM_P1;HPM_P2
2023/12/02 00:02:06;;;;;;;23.60;16.10;;;;;;;;;;5048988;28;20724;-64
2023/12/02 00:04:31;;;;;;;24.73;17.27;;;;;;;;;;5048130;28;20872;-64
2023/12/02 00:06:56;;;;;;;23.27;14.93;;;;;;;;;;5050514;28;20417;-63
2023/12/02 00:09:21;;;;;;;24.57;16.50;;;;;;;;;;5049708;28;20440;-64
2023/12/02 00:11:52;;;;;;;25.63;17.07;;;;;;;;;;5047301;28;20915;-63
2023/12/02 00:14:18;;;;;;;24.33;16.48;;;;;;;;;;5049734;28;20408;-64
2023/12/02 00:16:43;;;;;;;24.40;16.57;;;;;;;;;;5050384;28;20768;-63
2023/12/02 00:19:08;;;;;;;25.07;16.57;;;;;;;;;;5046891;28;20436;-64
2023/12/02 00:21:34;;;;;;;24.42;16.00;;;;;;;;;;5049622;28;20504;-63
2023/12/02 00:23:59;;;;;;;24.30;16.50;;;;;;;;;;5050378;28;20405;-63
2023/12/02 00:26:24;;;;;;;24.17;15.77;;;;;;;;;;5047530;28;20431;-63
2023/12/02 00:28:50;;;;;;;26.20;17.13;;;;;;;;;;5048998;28;20393;-63
2023/12/02 00:31:16;;;;;;;25.23;16.20;;;;;;;;;;5049606;28;20784;-63
2023/12/02 00:33:41;;;;;;;24.70;16.80;;;;;;;;;;5048831;28;20904;-63
2023/12/02 00:36:06;;;;;;;24.87;16.70;;;;;;;;;;5050130;28;20436;-64
2023/12/02 00:38:32;;;;;;;24.60;16.53;;;;;;;;;;5052624;28;20397;-63
2023/12/02 00:40:57;;;;;;;25.87;16.83;;;;;;;;;;5051736;28;20397;-63
2023/12/02 00:43:22;;;;;;;25.03;16.70;;;;;;;;;;5051693;28;20412;-63
2023/12/02 00:45:48;;;;;;;24.13;16.23;;;;;;;;;;5052690;28;20409;-63
2023/12/02 00:48:14;;;;;;;25.07;16.37;;;;;;;;;;5051290;28;20394;-63
2023/12/02 00:50:39;;;;;;;23.90;16.00;;;;;;;;;;5052421;28;20409;-63
2023/12/02 00:53:04;;;;;;;24.07;15.33;;;;;;;;;;5051273;28;20400;-64
2023/12/02 00:55:30;;;;;;;24.33;16.07;;;;;;;;;;5052392;28;20385;-63
2023/12/02 00:57:55;;;;;;;24.57;16.50;;;;;;;;;;5051994;28;20402;-63
2023/12/02 01:00:20;;;;;;;25.20;16.37;;;;;;;;;;5050973;28;20493;-63
2023/12/02 01:02:45;;;;;;;22.77;15.10;;;;;;;;;;5052111;28;20432;-63
2023/12/02 01:05:11;;;;;;;25.10;15.98;;;;;;;;;;5050762;28;20456;-63
2023/12/02 01:07:36;;;;;;;25.73;16.83;;;;;;;;;;5051583;28;20439;-63
2023/12/02 01:10:03;;;;;;;23.87;15.00;;;;;;;;;;5051740;28;20425;-63
2023/12/02 01:12:28;;;;;;;24.25;15.57;;;;;;;;;;5043002;28;20787;-63
2023/12/02 01:14:53;;;;;;;26.30;16.93;;;;;;;;;;5033259;28;20405;-63
2023/12/02 01:17:19;;;;;;;25.40;16.20;;;;;;;;;;5026043;28;20426;-63
2023/12/02 01:19:44;;;;;;;24.47;16.00;;;;;;;;;;5022379;28;20399;-64
2023/12/02 01:22:10;;;;;;;23.93;16.13;;;;;;;;;;5031126;28;20480;-63
2023/12/02 01:24:35;;;;;;;23.35;15.38;;;;;;;;;;5016346;28;20394;-63
2023/12/02 01:27:00;;;;;;;23.30;15.40;;;;;;;;;;5032950;28;20401;-65
2023/12/02 01:29:25;;;;;;;24.83;15.23;;;;;;;;;;5019767;28;20403;-63
2023/12/02 01:31:51;;;;;;;24.43;15.77;;;;;;;;;;5025595;28;20775;-63
2023/12/02 01:34:16;;;;;;;23.05;15.75;;;;;;;;;;5027069;28;20422;-63
2023/12/02 01:36:41;;;;;;;25.40;16.67;;;;;;;;;;5029469;28;20857;-63
2023/12/02 01:39:07;;;;;;;24.80;16.00;;;;;;;;;;5025463;28;20403;-63
2023/12/02 01:41:32;;;;;;;22.73;15.32;;;;;;;;;;5028009;28;20579;-63
2023/12/02 01:43:58;;;;;;;22.17;15.07;;;;;;;;;;5025896;28;20417;-63
2023/12/02 01:46:23;;;;;;;23.80;15.43;;;;;;;;;;5001515;28;20411;-63
2023/12/02 01:48:48;;;;;;;24.60;15.93;;;;;;;;;;5018836;28;21071;-63
2023/12/02 01:51:13;;;;;;;24.50;16.17;;;;;;;;;;5019112;28;20414;-63
2023/12/02 01:53:39;;;;;;;23.27;15.17;;;;;;;;;;5024250;28;20501;-63
2023/12/02 01:56:04;;;;;;;24.15;15.65;;;;;;;;;;5025123;28;20415;-63
2023/12/02 01:58:30;;;;;;;23.37;15.23;;;;;;;;;;5027878;28;20403;-63
2023/12/02 02:00:55;;;;;;;24.45;15.85;;;;;;;;;;5025650;28;20433;-63
2023/12/02 02:03:21;;;;;;;22.33;14.70;;;;;;;;;;5023742;28;20395;-63
2023/12/02 02:05:46;;;;;;;23.70;15.67;;;;;;;;;;5027449;28;20417;-63
2023/12/02 02:08:11;;;;;;;22.43;14.67;;;;;;;;;;5022102;28;20469;-63
2023/12/02 02:10:36;;;;;;;25.50;16.00;;;;;;;;;;5017285;28;20420;-63
2023/12/02 02:13:02;;;;;;;23.30;15.50;;;;;;;;;;5021058;28;20470;-63
2023/12/02 02:15:27;;;;;;;23.33;14.43;;;;;;;;;;5027797;28;20767;-63
2023/12/02 02:17:52;;;;;;;24.63;16.17;;;;;;;;;;5024515;28;20532;-63
2023/12/02 02:20:18;;;;;;;23.93;15.53;;;;;;;;;;5025291;28;20406;-63
2023/12/02 02:22:43;;;;;;;24.83;15.00;;;;;;;;;;5028380;28;20421;-63
2023/12/02 02:25:08;;;;;;;25.08;16.02;;;;;;;;;;5017578;28;20498;-63
2023/12/02 02:27:34;;;;;;;24.93;16.23;;;;;;;;;;5025405;28;20414;-63
2023/12/02 02:29:59;;;;;;;23.90;15.90;;;;;;;;;;5026004;28;20771;-63
2023/12/02 02:32:24;;;;;;;23.70;15.23;;;;;;;;;;5016326;28;20434;-63
2023/12/02 02:34:50;;;;;;;23.80;15.73;;;;;;;;;;5017041;28;20415;-63
2023/12/02 02:37:15;;;;;;;24.47;15.50;;;;;;;;;;5020334;28;20435;-63
2023/12/02 02:39:40;;;;;;;23.52;15.15;;;;;;;;;;5013243;28;20468;-63
2023/12/02 02:42:06;;;;;;;21.83;14.87;;;;;;;;;;5018271;28;20425;-64
2023/12/02 02:44:32;;;;;;;23.20;15.27;;;;;;;;;;5025858;28;20906;-63
2023/12/02 02:46:58;;;;;;;23.42;15.43;;;;;;;;;;5028526;28;20397;-63
2023/12/02 02:49:23;;;;;;;23.57;15.67;;;;;;;;;;5024280;28;20401;-63
2023/12/02 02:51:48;;;;;;;24.67;15.35;;;;;;;;;;5024970;28;20418;-64
2023/12/02 02:54:14;;;;;;;22.90;15.77;;;;;;;;;;5020321;28;20914;-63
2023/12/02 02:56:39;;;;;;;25.27;15.97;;;;;;;;;;5017369;28;20403;-63
2023/12/02 02:59:04;;;;;;;24.17;15.93;;;;;;;;;;4998636;28;20431;-64
2023/12/02 03:01:29;;;;;;;27.60;16.30;;;;;;;;;;5023959;28;20493;-64
2023/12/02 03:03:55;;;;;;;25.83;15.87;;;;;;;;;;5031427;28;20810;-63
2023/12/02 03:06:20;;;;;;;25.87;16.47;;;;;;;;;;5030227;28;20493;-64
2023/12/02 03:08:46;;;;;;;23.83;16.02;;;;;;;;;;5025443;28;20530;-63
2023/12/02 03:11:11;;;;;;;24.93;15.90;;;;;;;;;;5026029;28;20437;-64
2023/12/02 03:13:36;;;;;;;24.48;16.17;;;;;;;;;;5007121;28;20418;-63
2023/12/02 03:16:02;;;;;;;24.90;16.53;;;;;;;;;;5020456;28;20407;-63
2023/12/02 03:18:27;;;;;;;24.33;16.43;;;;;;;;;;5018924;28;20453;-63
2023/12/02 03:20:53;;;;;;;22.77;15.68;;;;;;;;;;5016480;28;20519;-63
2023/12/02 03:23:18;;;;;;;24.30;16.10;;;;;;;;;;5019577;28;20411;-63
2023/12/02 03:25:43;;;;;;;24.00;16.20;;;;;;;;;;5026668;28;20405;-63
2023/12/02 03:28:09;;;;;;;24.35;16.10;;;;;;;;;;5029495;28;20525;-64
2023/12/02 03:30:34;;;;;;;24.87;16.57;;;;;;;;;;5031004;28;20418;-64
2023/12/02 03:32:59;;;;;;;23.43;16.17;;;;;;;;;;5032197;28;20457;-63
2023/12/02 03:35:24;;;;;;;23.97;15.57;;;;;;;;;;5030670;28;20393;-64
2023/12/02 03:37:50;;;;;;;23.93;15.70;;;;;;;;;;5029853;28;20415;-63
2023/12/02 03:40:15;;;;;;;23.27;15.63;;;;;;;;;;5015002;28;20406;-64
2023/12/02 03:42:40;;;;;;;24.20;16.03;;;;;;;;;;5024245;28;20789;-63
2023/12/02 03:45:06;;;;;;;24.02;15.95;;;;;;;;;;5023126;28;20901;-64
2023/12/02 03:47:32;;;;;;;23.90;16.43;;;;;;;;;;5029133;28;20461;-63
2023/12/02 03:49:57;;;;;;;23.55;16.02;;;;;;;;;;5042210;28;20522;-63
2023/12/02 03:52:22;;;;;;;25.17;16.50;;;;;;;;;;5031279;28;20439;-63
2023/12/02 03:54:48;;;;;;;25.40;16.83;;;;;;;;;;5032335;28;20408;-63
2023/12/02 03:57:13;;;;;;;23.98;16.23;;;;;;;;;;5029996;28;20875;-64
2023/12/02 03:59:38;;;;;;;23.27;16.00;;;;;;;;;;5031901;28;20410;-63
2023/12/02 04:02:04;;;;;;;24.50;16.30;;;;;;;;;;5027040;28;20424;-63
2023/12/02 04:04:29;;;;;;;24.47;16.00;;;;;;;;;;5024619;28;20408;-63
2023/12/02 04:06:54;;;;;;;23.73;16.43;;;;;;;;;;5022339;28;20414;-64
2023/12/02 04:09:21;;;;;;;24.30;16.50;;;;;;;;;;5031311;28;20394;-63
2023/12/02 04:11:48;;;;;;;25.20;16.20;;;;;;;;;;5029323;28;21688;-63
2023/12/02 04:14:13;;;;;;;23.13;16.10;;;;;;;;;;5030348;28;20417;-64
2023/12/02 04:16:40;;;;;;;23.40;16.00;;;;;;;;;;5032010;28;20411;-63
2023/12/02 04:19:06;;;;;;;23.90;16.23;;;;;;;;;;5035492;28;20403;-64
2023/12/02 04:21:32;;;;;;;23.58;16.05;;;;;;;;;;5034425;28;20405;-63
2023/12/02 04:23:57;;;;;;;23.20;15.75;;;;;;;;;;5027500;28;20496;-63
2023/12/02 04:26:22;;;;;;;24.23;17.00;;;;;;;;;;5024020;28;20547;-63
2023/12/02 04:28:48;;;;;;;24.07;16.10;;;;;;;;;;5026784;28;20782;-64
2023/12/02 04:31:13;;;;;;;25.60;17.07;;;;;;;;;;5025436;28;20807;-63
2023/12/02 04:33:38;;;;;;;23.30;16.07;;;;;;;;;;5032750;28;20401;-63
2023/12/02 04:36:04;;;;;;;24.67;16.40;;;;;;;;;;5029651;28;20409;-63
2023/12/02 04:38:29;;;;;;;22.80;15.32;;;;;;;;;;5042753;28;20397;-63
2023/12/02 04:40:55;;;;;;;23.03;15.70;;;;;;;;;;5036173;28;21371;-64
2023/12/02 04:43:20;;;;;;;23.23;15.93;;;;;;;;;;5026448;28;20499;-62
2023/12/02 04:45:45;;;;;;;23.83;16.30;;;;;;;;;;5027125;28;20932;-63
2023/12/02 04:48:11;;;;;;;23.00;15.53;;;;;;;;;;5019262;28;20418;-63
2023/12/02 04:50:37;;;;;;;23.00;15.27;;;;;;;;;;5019771;28;20894;-63
2023/12/02 04:53:04;;;;;;;24.92;16.20;;;;;;;;;;5022414;28;20418;-63
2023/12/02 04:55:30;;;;;;;22.60;15.77;;;;;;;;;;5028590;28;20385;-63
2023/12/02 04:57:55;;;;;;;23.77;15.90;;;;;;;;;;5026883;28;20417;-63
2023/12/02 05:00:21;;;;;;;23.63;16.13;;;;;;;;;;5027224;28;20407;-63
2023/12/02 05:02:46;;;;;;;23.00;15.90;;;;;;;;;;5026864;28;20421;-63
2023/12/02 05:05:12;;;;;;;22.67;15.43;;;;;;;;;;5026108;28;21561;-63
2023/12/02 05:07:37;;;;;;;23.00;15.32;;;;;;;;;;5027381;28;20409;-63
2023/12/02 05:10:04;;;;;;;23.10;15.20;;;;;;;;;;5021737;28;20413;-63
2023/12/02 05:12:30;;;;;;;23.52;16.10;;;;;;;;;;5018386;28;21057;-63
2023/12/02 05:14:55;;;;;;;21.70;14.87;;;;;;;;;;5017741;28;20399;-63
2023/12/02 05:17:21;;;;;;;21.58;15.00;;;;;;;;;;5027897;28;20387;-62
2023/12/02 05:19:47;;;;;;;22.17;14.90;;;;;;;;;;5026411;28;20392;-63
2023/12/02 05:22:12;;;;;;;21.13;14.27;;;;;;;;;;5025625;28;20485;-62
2023/12/02 05:24:38;;;;;;;21.50;14.77;;;;;;;;;;5028035;28;20960;-63
2023/12/02 05:27:03;;;;;;;21.13;14.23;;;;;;;;;;5027077;28;20415;-62
2023/12/02 05:29:28;;;;;;;22.13;14.80;;;;;;;;;;5025028;28;20412;-62
2023/12/02 05:31:53;;;;;;;22.30;15.30;;;;;;;;;;5024910;28;20402;-62
2023/12/02 05:34:19;;;;;;;20.73;13.97;;;;;;;;;;5013563;28;20430;-62
2023/12/02 05:36:45;;;;;;;22.13;15.13;;;;;;;;;;5033224;28;20400;-63
2023/12/02 05:39:11;;;;;;;22.35;14.40;;;;;;;;;;5036780;28;20401;-62
2023/12/02 05:41:39;;;;;;;21.13;14.70;;;;;;;;;;5040686;28;20382;-62
2023/12/02 05:44:04;;;;;;;22.35;15.10;;;;;;;;;;5033375;28;20425;-62
2023/12/02 05:46:29;;;;;;;21.77;15.20;;;;;;;;;;5041225;28;20386;-62
2023/12/02 05:48:55;;;;;;;22.53;14.97;;;;;;;;;;5040305;28;20423;-62
2023/12/02 05:51:20;;;;;;;22.33;15.27;;;;;;;;;;5040962;28;20408;-62
2023/12/02 05:53:45;;;;;;;21.93;15.30;;;;;;;;;;5040490;28;20406;-62
2023/12/02 05:56:11;;;;;;;22.83;15.20;;;;;;;;;;5027296;28;20399;-62
2023/12/02 05:58:36;;;;;;;21.85;14.98;;;;;;;;;;5032935;28;20865;-62
2023/12/02 06:01:01;;;;;;;22.83;15.50;;;;;;;;;;5026274;28;20909;-63
2023/12/02 06:03:26;;;;;;;21.40;15.00;;;;;;;;;;5020548;28;20438;-62
2023/12/02 06:05:52;;;;;;;22.53;15.27;;;;;;;;;;5019845;28;20453;-62
2023/12/02 06:08:17;;;;;;;22.87;15.40;;;;;;;;;;5020789;28;20461;-62
2023/12/02 06:10:42;;;;;;;21.67;15.00;;;;;;;;;;5039986;28;20398;-62
2023/12/02 06:13:08;;;;;;;23.70;15.20;;;;;;;;;;5040126;28;20830;-63
2023/12/02 06:15:33;;;;;;;21.88;14.70;;;;;;;;;;5040713;28;20397;-62
2023/12/02 06:17:58;;;;;;;24.47;15.90;;;;;;;;;;5029539;28;20414;-62
2023/12/02 06:20:24;;;;;;;23.17;15.10;;;;;;;;;;5012048;28;21010;-62
2023/12/02 06:22:50;;;;;;;22.65;15.18;;;;;;;;;;5026559;28;20584;-62
2023/12/02 06:25:15;;;;;;;23.50;15.60;;;;;;;;;;5018277;28;20914;-62
2023/12/02 06:27:41;;;;;;;23.07;15.70;;;;;;;;;;5022506;28;20736;-62
2023/12/02 06:30:06;;;;;;;23.57;15.80;;;;;;;;;;5039773;28;20896;-63
2023/12/02 06:32:32;;;;;;;22.83;15.57;;;;;;;;;;5039933;28;20390;-62
2023/12/02 06:34:57;;;;;;;23.67;16.13;;;;;;;;;;5039958;28;20444;-62
2023/12/02 06:37:22;;;;;;;22.65;14.90;;;;;;;;;;5040026;28;20714;-62
2023/12/02 06:39:48;;;;;;;22.00;15.00;;;;;;;;;;5035860;28;20488;-63
2023/12/02 06:42:13;;;;;;;20.87;14.57;;;;;;;;;;5031981;28;21038;-62
2023/12/02 06:44:38;;;;;;;22.63;15.53;;;;;;;;;;5019382;28;20438;-63
2023/12/02 06:47:03;;;;;;;21.42;14.45;;;;;;;;;;5016215;28;20403;-62
2023/12/02 06:49:31;;;;;;;23.27;14.73;;;;;;;;;;5039834;28;20878;-62
2023/12/02 06:51:57;;;;;;;23.83;16.05;;;;;;;;;;5039034;28;20401;-62
2023/12/02 06:54:22;;;;;;;23.37;15.90;;;;;;;;;;5039807;28;20389;-62
2023/12/02 06:56:47;;;;;;;25.83;16.73;;;;;;;;;;5030230;28;20902;-62
2023/12/02 06:59:13;;;;;;;23.27;16.03;;;;;;;;;;5019592;28;20484;-62
2023/12/02 07:01:38;;;;;;;23.73;15.83;;;;;;;;;;5024055;28;20437;-62
2023/12/02 07:04:03;;;;;;;22.80;15.27;;;;;;;;;;5044873;28;20768;-64
2023/12/02 07:06:28;;;;;;;20.23;14.43;;;;;;;;;;5048906;28;20551;-63
2023/12/02 07:08:54;;;;;;;20.77;14.43;;;;;;;;;;5048112;28;20417;-64
2023/12/02 07:11:20;;;;;;;21.97;15.23;;;;;;;;;;5046507;28;20405;-66
2023/12/02 07:13:45;;;;;;;22.35;15.05;;;;;;;;;;5044613;28;20397;-64
2023/12/02 07:16:10;;;;;;;28.60;18.73;;;;;;;;;;5046614;28;20483;-66
2023/12/02 07:18:36;;;;;;;39.72;25.55;;;;;;;;;;5046984;28;20477;-67
2023/12/02 07:21:01;;;;;;;26.37;17.70;;;;;;;;;;5042859;28;20393;-66
2023/12/02 07:23:28;;;;;;;22.60;15.90;;;;;;;;;;5047030;28;20397;-66
2023/12/02 07:25:54;;;;;;;64.20;43.03;;;;;;;;;;5047034;28;20488;-65
2023/12/02 07:28:19;;;;;;;24.55;16.63;;;;;;;;;;5043633;28;20484;-66
2023/12/02 07:30:44;;;;;;;23.40;16.27;;;;;;;;;;5046733;28;20734;-65
2023/12/02 07:33:10;;;;;;;24.77;17.63;;;;;;;;;;5046556;28;20405;-64
2023/12/02 07:35:35;;;;;;;25.23;18.10;;;;;;;;;;5044596;28;20394;-64
2023/12/02 07:38:00;;;;;;;23.80;16.53;;;;;;;;;;5045171;28;20421;-66
2023/12/02 07:40:25;;;;;;;25.60;17.43;;;;;;;;;;5046853;28;20781;-66
2023/12/02 07:42:51;;;;;;;24.37;16.47;;;;;;;;;;5045527;28;20413;-65
2023/12/02 07:45:16;;;;;;;26.33;19.25;;;;;;;;;;5044510;28;21422;-65
2023/12/02 07:47:42;;;;;;;29.73;25.37;;;;;;;;;;5029323;28;20415;-66
2023/12/02 07:50:07;;;;;;;28.43;21.60;;;;;;;;;;5045217;28;20409;-64
2023/12/02 07:52:32;;;;;;;27.95;22.40;;;;;;;;;;5043860;28;20401;-66
2023/12/02 07:54:58;;;;;;;28.90;20.83;;;;;;;;;;5045437;28;20416;-65
2023/12/02 07:57:23;;;;;;;25.53;18.63;;;;;;;;;;5044762;28;20469;-65
2023/12/02 07:59:48;;;;;;;26.20;19.52;;;;;;;;;;5044681;28;20405;-67
2023/12/02 08:02:14;;;;;;;27.30;19.30;;;;;;;;;;5044388;28;20832;-67
2023/12/02 08:04:39;;;;;;;26.73;19.17;;;;;;;;;;5045944;28;20484;-66
2023/12/02 08:07:04;;;;;;;26.27;19.83;;;;;;;;;;5044184;28;20476;-65
2023/12/02 08:09:30;;;;;;;25.93;20.23;;;;;;;;;;5044460;28;20427;-63
2023/12/02 08:11:55;;;;;;;26.97;19.90;;;;;;;;;;5046525;28;20738;-63
2023/12/02 08:14:20;;;;;;;29.10;20.30;;;;;;;;;;5048202;28;20942;-62
2023/12/02 08:16:46;;;;;;;26.87;18.53;;;;;;;;;;5047174;28;20904;-63
2023/12/02 08:19:11;;;;;;;25.57;17.43;;;;;;;;;;5052215;28;20425;-63
2023/12/02 08:21:36;;;;;;;26.27;20.73;;;;;;;;;;5050422;28;20400;-63
2023/12/02 08:24:01;;;;;;;30.00;26.13;;;;;;;;;;5046177;28;20927;-63
2023/12/02 08:26:27;;;;;;;25.67;19.63;;;;;;;;;;5049153;28;20421;-63
2023/12/02 08:28:52;;;;;;;24.50;17.03;;;;;;;;;;5049483;28;20413;-63
2023/12/02 08:31:17;;;;;;;27.07;19.23;;;;;;;;;;5047428;28;20413;-64
2023/12/02 08:33:43;;;;;;;24.50;18.40;;;;;;;;;;5048965;28;20803;-63
2023/12/02 08:36:08;;;;;;;22.40;15.77;;;;;;;;;;5049738;28;20913;-63
2023/12/02 08:38:34;;;;;;;22.70;16.27;;;;;;;;;;5048224;28;20389;-63
2023/12/02 08:40:59;;;;;;;24.63;17.97;;;;;;;;;;5048239;28;20757;-64
2023/12/02 08:43:24;;;;;;;21.65;15.95;;;;;;;;;;5031582;28;20442;-63
2023/12/02 08:45:49;;;;;;;24.53;18.20;;;;;;;;;;5049113;28;20401;-64
2023/12/02 08:48:15;;;;;;;23.10;17.73;;;;;;;;;;5046813;28;20408;-64
2023/12/02 08:50:40;;;;;;;22.38;16.98;;;;;;;;;;5049800;28;20448;-64
2023/12/02 08:53:06;;;;;;;23.60;18.43;;;;;;;;;;5048332;28;20397;-64
2023/12/02 08:55:31;;;;;;;21.73;16.07;;;;;;;;;;5047714;28;20847;-63
2023/12/02 08:57:56;;;;;;;21.92;15.88;;;;;;;;;;5048729;28;20409;-64
2023/12/02 09:00:22;;;;;;;24.10;18.93;;;;;;;;;;5048384;28;20390;-64
2023/12/02 09:02:47;;;;;;;22.53;15.93;;;;;;;;;;5048345;28;20417;-64
2023/12/02 09:05:12;;;;;;;22.50;15.97;;;;;;;;;;5047322;28;20417;-64
2023/12/02 09:07:38;;;;;;;21.17;14.70;;;;;;;;;;5048182;28;20417;-64
2023/12/02 09:10:03;;;;;;;22.17;18.13;;;;;;;;;;5048744;28;20400;-64
2023/12/02 09:12:29;;;;;;;19.47;14.30;;;;;;;;;;5046281;28;20764;-64
2023/12/02 09:15:05;;;;;;;22.23;15.33;;;;;;;;;;5049162;28;20409;-64
2023/12/02 09:17:45;;;;;;;22.30;19.23;;;;;;;;;;5031276;28;20402;-64
2023/12/02 09:20:29;;;;;;;21.10;14.52;;;;;;;;;;5029906;28;20896;-64
2023/12/02 09:22:55;;;;;;;19.45;14.68;;;;;;;;;;5046599;28;20430;-64
2023/12/02 09:25:28;;;;;;;20.93;15.43;;;;;;;;;;5030693;28;21043;-65
2023/12/02 09:27:59;;;;;;;21.73;15.90;;;;;;;;;;5048100;28;20397;-65
2023/12/02 09:30:25;;;;;;;21.05;16.02;;;;;;;;;;5046673;28;20761;-65
2023/12/02 09:32:50;;;;;;;20.27;14.80;;;;;;;;;;5048157;28;20446;-64
2023/12/02 09:35:15;;;;;;;21.33;15.90;;;;;;;;;;5047623;28;20405;-66
2023/12/02 09:37:51;;;;;;;20.73;15.97;;;;;;;;;;5047883;28;20412;-64
2023/12/02 09:40:23;;;;;;;22.17;16.65;;;;;;;;;;5046271;28;20412;-65
2023/12/02 09:42:51;;;;;;;20.83;16.42;;;;;;;;;;5047924;28;20425;-63
2023/12/02 09:45:16;;;;;;;20.60;15.15;;;;;;;;;;5030219;28;20408;-66
2023/12/02 09:47:42;;;;;;;21.60;15.47;;;;;;;;;;5027948;28;20405;-66
2023/12/02 09:50:09;;;;;;;20.97;15.30;;;;;;;;;;5029378;28;20405;-66
2023/12/02 09:52:45;;;;;;;20.42;15.05;;;;;;;;;;5048587;28;20398;-66
2023/12/02 09:55:19;;;;;;;20.55;15.35;;;;;;;;;;5029170;28;20401;-66
2023/12/02 09:57:45;;;;;;;20.45;15.95;;;;;;;;;;5045895;28;20764;-66
2023/12/02 10:00:15;;;;;;;19.98;15.27;;;;;;;;;;5047753;28;20768;-66
2023/12/02 10:02:43;;;;;;;19.75;15.02;;;;;;;;;;5030091;28;20505;-66
2023/12/02 10:05:09;;;;;;;21.15;16.20;;;;;;;;;;5045857;28;20417;-66
2023/12/02 10:07:37;;;;;;;20.97;15.73;;;;;;;;;;5047188;28;20494;-66
2023/12/02 10:10:09;;;;;;;21.85;16.33;;;;;;;;;;5046512;28;20429;-66
2023/12/02 10:12:52;;;;;;;20.60;15.98;;;;;;;;;;5048213;28;20484;-66
2023/12/02 10:15:17;;;;;;;21.83;16.20;;;;;;;;;;5045438;28;20491;-66
2023/12/02 10:17:49;;;;;;;21.07;16.13;;;;;;;;;;5046768;28;20482;-66
2023/12/02 10:20:14;;;;;;;20.55;16.08;;;;;;;;;;5029813;28;20896;-67
2023/12/02 10:22:43;;;;;;;21.13;16.53;;;;;;;;;;5029708;28;20424;-66
2023/12/02 10:25:10;;;;;;;20.95;16.42;;;;;;;;;;5045278;28;20405;-67
2023/12/02 10:27:36;;;;;;;23.23;16.98;;;;;;;;;;5047938;28;20393;-67
2023/12/02 10:30:10;;;;;;;21.95;16.90;;;;;;;;;;5029297;28;20451;-67
2023/12/02 10:32:39;;;;;;;21.77;16.63;;;;;;;;;;5046023;28;21216;-66
2023/12/02 10:35:09;;;;;;;21.35;16.98;;;;;;;;;;5046280;28;20488;-67
2023/12/02 10:37:39;;;;;;;22.47;17.13;;;;;;;;;;5045899;28;20412;-67
2023/12/02 10:40:06;;;;;;;23.40;17.40;;;;;;;;;;5046491;28;20446;-67
2023/12/02 10:42:34;;;;;;;24.33;18.45;;;;;;;;;;5045119;28;20409;-67
2023/12/02 10:45:02;;;;;;;23.83;17.98;;;;;;;;;;5029071;28;20413;-67
2023/12/02 10:47:28;;;;;;;25.27;18.80;;;;;;;;;;5047010;28;20416;-67
2023/12/02 10:49:54;;;;;;;24.55;17.48;;;;;;;;;;5028413;28;20397;-67
2023/12/02 10:52:19;;;;;;;24.40;18.03;;;;;;;;;;5045374;28;20402;-66
2023/12/02 10:54:44;;;;;;;25.20;18.10;;;;;;;;;;5029850;28;21241;-66
2023/12/02 10:57:12;;;;;;;22.67;16.73;;;;;;;;;;5028634;28;20408;-66
2023/12/02 10:59:40;;;;;;;24.70;18.25;;;;;;;;;;5044583;28;20405;-66
2023/12/02 11:02:14;;;;;;;23.57;17.43;;;;;;;;;;5046280;28;20453;-67
2023/12/02 11:04:42;;;;;;;23.98;17.45;;;;;;;;;;5029774;28;20496;-67
2023/12/02 11:07:07;;;;;;;25.67;18.23;;;;;;;;;;5027181;28;21019;-66
2023/12/02 11:09:39;;;;;;;23.87;18.00;;;;;;;;;;5028899;28;20405;-66
2023/12/02 11:12:08;;;;;;;25.23;18.70;;;;;;;;;;5028513;28;20800;-67
2023/12/02 11:14:39;;;;;;;23.58;17.38;;;;;;;;;;5046535;28;20476;-66
2023/12/02 11:17:07;;;;;;;24.15;18.23;;;;;;;;;;5027348;28;20437;-66
2023/12/02 11:19:32;;;;;;;25.92;18.13;;;;;;;;;;5046293;28;20413;-66
2023/12/02 11:21:59;;;;;;;24.63;18.47;;;;;;;;;;5046834;28;20393;-66
2023/12/02 11:24:24;;;;;;;25.52;18.30;;;;;;;;;;5044843;28;20420;-66
2023/12/02 11:26:50;;;;;;;25.33;18.57;;;;;;;;;;5045056;28;20409;-66
2023/12/02 11:29:16;;;;;;;25.25;18.45;;;;;;;;;;5046549;28;20409;-66
2023/12/02 11:31:57;;;;;;;25.57;18.93;;;;;;;;;;5046209;28;20904;-66
2023/12/02 11:34:22;;;;;;;26.13;18.48;;;;;;;;;;5025899;28;20404;-66
2023/12/02 11:36:53;;;;;;;27.03;19.20;;;;;;;;;;5046733;28;20409;-66
2023/12/02 11:39:24;;;;;;;29.02;20.92;;;;;;;;;;5046388;28;20409;-66
2023/12/02 11:41:50;;;;;;;27.65;19.50;;;;;;;;;;5027531;28;20900;-66
2023/12/02 11:44:17;;;;;;;25.40;18.50;;;;;;;;;;5045125;28;20433;-66
2023/12/02 11:46:47;;;;;;;26.77;19.35;;;;;;;;;;5046513;28;20428;-66
2023/12/02 11:49:14;;;;;;;28.77;20.30;;;;;;;;;;5031213;28;20480;-66
2023/12/02 11:51:43;;;;;;;27.98;20.15;;;;;;;;;;5031136;28;21166;-66
2023/12/02 11:54:25;;;;;;;28.20;19.92;;;;;;;;;;5032057;28;20393;-66
2023/12/02 11:57:11;;;;;;;28.90;20.92;;;;;;;;;;5050384;28;20899;-66
2023/12/02 11:59:39;;;;;;;28.63;20.20;;;;;;;;;;5050262;28;20400;-66
2023/12/02 12:02:09;;;;;;;29.45;20.13;;;;;;;;;;5046642;28;20917;-66
2023/12/02 12:04:37;;;;;;;28.97;20.00;;;;;;;;;;5032811;28;20409;-66
2023/12/02 12:07:03;;;;;;;28.48;19.92;;;;;;;;;;5032387;28;20485;-66
2023/12/02 12:09:33;;;;;;;27.45;19.65;;;;;;;;;;5048374;28;20397;-66
2023/12/02 12:11:58;;;;;;;27.75;20.00;;;;;;;;;;5031747;28;20492;-66
2023/12/02 12:14:24;;;;;;;28.70;20.10;;;;;;;;;;5032406;28;20523;-66
2023/12/02 12:16:50;;;;;;;29.50;20.27;;;;;;;;;;5015734;28;20393;-66
2023/12/02 12:19:15;;;;;;;28.80;20.03;;;;;;;;;;5047513;28;20394;-66
2023/12/02 12:21:42;;;;;;;31.33;21.37;;;;;;;;;;5050111;28;20446;-66
2023/12/02 12:24:07;;;;;;;43.35;29.67;;;;;;;;;;5048801;28;20908;-66
2023/12/02 12:26:33;;;;;;;39.80;26.23;;;;;;;;;;5047926;28;20415;-66
2023/12/02 12:28:58;;;;;;;72.37;45.10;;;;;;;;;;5049204;28;20533;-66
2023/12/02 12:31:23;;;;;;;31.83;22.13;;;;;;;;;;5048864;28;20409;-66
2023/12/02 12:33:49;;;;;;;30.17;21.63;;;;;;;;;;5031524;28;20962;-66
2023/12/02 12:36:15;;;;;;;29.40;20.50;;;;;;;;;;5047739;28;20408;-66
2023/12/02 12:38:40;;;;;;;29.13;19.57;;;;;;;;;;5031470;28;20397;-66
2023/12/02 12:41:05;;;;;;;29.10;19.73;;;;;;;;;;5031899;28;20394;-66
2023/12/02 12:43:31;;;;;;;28.40;19.73;;;;;;;;;;5045970;28;20401;-66
2023/12/02 12:45:56;;;;;;;29.30;19.93;;;;;;;;;;5049913;28;20548;-67
2023/12/02 12:48:24;;;;;;;27.60;19.57;;;;;;;;;;5049028;28;20480;-66
2023/12/02 12:50:49;;;;;;;28.58;19.92;;;;;;;;;;5030293;28;20402;-66
2023/12/02 12:53:16;;;;;;;30.87;20.83;;;;;;;;;;5030346;28;20424;-66
2023/12/02 12:55:47;;;;;;;30.35;20.75;;;;;;;;;;5051152;28;20393;-66
2023/12/02 12:58:14;;;;;;;29.93;21.03;;;;;;;;;;5031796;28;20797;-66
2023/12/02 13:00:39;;;;;;;28.90;19.73;;;;;;;;;;5047011;28;20401;-66
2023/12/02 13:03:23;;;;;;;29.77;20.17;;;;;;;;;;5030473;28;21444;-66
2023/12/02 13:05:51;;;;;;;30.50;20.52;;;;;;;;;;5048302;28;20410;-66
2023/12/02 13:08:20;;;;;;;28.52;19.23;;;;;;;;;;5048911;28;20401;-66
2023/12/02 13:10:47;;;;;;;31.58;20.65;;;;;;;;;;5046709;28;20420;-66
2023/12/02 13:13:13;;;;;;;29.65;20.23;;;;;;;;;;5030283;28;20393;-66
2023/12/02 13:15:38;;;;;;;30.40;20.17;;;;;;;;;;5032074;28;20400;-66
2023/12/02 13:18:03;;;;;;;30.47;20.53;;;;;;;;;;5047180;28;20792;-66
2023/12/02 13:20:29;;;;;;;30.13;20.57;;;;;;;;;;5029837;28;20502;-66
2023/12/02 13:22:54;;;;;;;28.30;19.53;;;;;;;;;;5049150;28;20487;-66
2023/12/02 13:25:20;;;;;;;29.47;20.13;;;;;;;;;;5048199;28;20904;-66
2023/12/02 13:27:46;;;;;;;30.33;20.88;;;;;;;;;;5028532;28;20413;-66
2023/12/02 13:30:11;;;;;;;31.38;20.73;;;;;;;;;;5048328;28;20412;-66
2023/12/02 13:32:40;;;;;;;30.37;20.87;;;;;;;;;;5030782;28;20402;-66
2023/12/02 13:35:11;;;;;;;30.13;21.30;;;;;;;;;;5046060;28;20459;-66
2023/12/02 13:37:39;;;;;;;30.70;21.15;;;;;;;;;;5048192;28;20405;-66
2023/12/02 13:40:05;;;;;;;29.92;20.85;;;;;;;;;;5047188;28;20416;-66
2023/12/02 13:42:32;;;;;;;31.05;20.67;;;;;;;;;;5047873;28;20394;-66
2023/12/02 13:45:01;;;;;;;28.63;19.73;;;;;;;;;;5046385;28;20412;-66
2023/12/02 13:47:37;;;;;;;30.17;21.27;;;;;;;;;;5029890;28;20402;-66
2023/12/02 13:50:02;;;;;;;34.33;21.90;;;;;;;;;;5030478;28;20475;-66
2023/12/02 13:52:38;;;;;;;31.50;21.30;;;;;;;;;;5046608;28;20397;-66
2023/12/02 13:55:04;;;;;;;29.08;20.65;;;;;;;;;;5046101;28;20405;-66
2023/12/02 13:57:37;;;;;;;28.85;19.65;;;;;;;;;;5048136;28;20488;-66
2023/12/02 14:00:05;;;;;;;27.85;19.02;;;;;;;;;;5047470;28;20405;-66
2023/12/02 14:02:35;;;;;;;28.50;19.73;;;;;;;;;;5044867;28;20424;-66
2023/12/02 14:05:09;;;;;;;32.28;21.55;;;;;;;;;;5047956;28;21014;-66
2023/12/02 14:07:41;;;;;;;31.90;20.45;;;;;;;;;;5028606;28;20489;-66
2023/12/02 14:10:07;;;;;;;30.97;20.97;;;;;;;;;;5042344;28;20445;-66
2023/12/02 14:12:32;;;;;;;29.95;20.42;;;;;;;;;;5023591;28;20404;-66